Observation data for Anton on 01/20/2019      Previous  Date  Next       Current Mesonet Observations  Soil Data  Daily Summary Page  Observations in Plain Language
KAOS 200600Z 18004KT M03/M07 A3028 RMK A01 T10301066  RH  076%=      5-min Rain = 0
KAOS 200605Z 18004KT M03/M07 A3028 RMK A01 T10301066  RH  076%=      5-min Rain = 0
KAOS 200610Z 17004KT M03/M07 A3028 RMK A01 T10301065  RH  076%=      5-min Rain = 0
KAOS 200615Z 17005KT M03/M07 A3028 RMK A01 T10291066  RH  076%=      5-min Rain = 0
KAOS 200620Z 16004KT M03/M07 A3028 RMK A01 T10291066  RH  076%=      5-min Rain = 0
KAOS 200625Z 16005KT M03/M07 A3028 RMK A01 T10261065  RH  075%=      5-min Rain = 0
KAOS 200630Z 17005KT M03/M07 A3028 RMK A01 T10261068  RH  073%=      5-min Rain = 0
KAOS 200635Z 17005KT M03/M07 A3028 RMK A01 T10291067  RH  075%=      5-min Rain = 0
KAOS 200640Z 18006KT M03/M07 A3028 RMK A01 T10311067  RH  076%=      5-min Rain = 0
KAOS 200645Z 18006KT M03/M07 A3028 RMK A01 T10331069  RH  076%=      5-min Rain = 0
KAOS 200650Z 17006KT M03/M07 A3028 RMK A01 T10331070  RH  075%=      5-min Rain = 0
KAOS 200655Z 18005KT M04/M07 A3028 RMK A01 T10361074  RH  075%=      5-min Rain = 0
KAOS 200700Z 18005KT M04/M07 A3027 RMK A01 T10391074  RH  077%=      5-min Rain = 0
KAOS 200705Z 18005KT M04/M07 A3028 RMK A01 T10401074  RH  077%=      5-min Rain = 0
KAOS 200710Z 17006KT M04/M07 A3028 RMK A01 T10401074  RH  078%=      5-min Rain = 0
KAOS 200715Z 17007KT M04/M07 A3028 RMK A01 T10391074  RH  077%=      5-min Rain = 0
KAOS 200720Z 17007KT M04/M07 A3028 RMK A01 T10361070  RH  077%=      5-min Rain = 0
KAOS 200725Z 17009KT M03/M06 A3028 RMK A01 T10271064  RH  075%=      5-min Rain = 0
KAOS 200730Z 17009KT M02/M06 A3028 RMK A01 T10211062  RH  073%=      5-min Rain = 0
KAOS 200735Z 17008KT M02/M06 A3028 RMK A01 T10211062  RH  074%=      5-min Rain = 0
KAOS 200740Z 18008KT M02/M06 A3028 RMK A01 T10231062  RH  075%=      5-min Rain = 0
KAOS 200745Z 17008KT M03/M06 A3027 RMK A01 T10251063  RH  075%=      5-min Rain = 0
KAOS 200750Z 18008KT M03/M06 A3027 RMK A01 T10261062  RH  076%=      5-min Rain = 0
KAOS 200755Z 17008KT M03/M06 A3027 RMK A01 T10271064  RH  076%=      5-min Rain = 0
KAOS 200800Z 17007KT M03/M06 A3027 RMK A01 T10271064  RH  076%=      5-min Rain = 0
KAOS 200805Z 17006KT M03/M07 A3027 RMK A01 T10271065  RH  076%=      5-min Rain = 0
KAOS 200810Z 16006KT M03/M07 A3027 RMK A01 T10281065  RH  076%=      5-min Rain = 0
KAOS 200815Z 16006KT M03/M07 A3027 RMK A01 T10281065  RH  076%=      5-min Rain = 0
KAOS 200820Z 16007KT M03/M07 A3027 RMK A01 T10301067  RH  076%=      5-min Rain = 0
KAOS 200825Z 17006KT M03/M07 A3027 RMK A01 T10311067  RH  077%=      5-min Rain = 0
KAOS 200830Z 16006KT M03/M07 A3027 RMK A01 T10331068  RH  077%=      5-min Rain = 0
KAOS 200835Z 16005KT M04/M07 A3027 RMK A01 T10351068  RH  078%=      5-min Rain = 0
KAOS 200840Z 16005KT M04/M07 A3027 RMK A01 T10351068  RH  078%=      5-min Rain = 0
KAOS 200845Z 15004KT M04/M07 A3027 RMK A01 T10371069  RH  078%=      5-min Rain = 0
KAOS 200850Z 14005KT M04/M07 A3027 RMK A01 T10381069  RH  079%=      5-min Rain = 0
KAOS 200855Z 16005KT M04/M07 A3027 RMK A01 T10391071  RH  079%=      5-min Rain = 0
KAOS 200900Z 16005KT M04/M07 A3027 RMK A01 T10391068  RH  080%=      5-min Rain = 0
KAOS 200905Z 15004KT M04/M07 A3027 RMK A01 T10401071  RH  079%=      5-min Rain = 0
KAOS 200910Z 14004KT M04/M07 A3027 RMK A01 T10391068  RH  081%=      5-min Rain = 0
KAOS 200915Z 13003KT M04/M07 A3027 RMK A01 T10371067  RH  080%=      5-min Rain = 0
KAOS 200920Z 13003KT M04/M07 A3027 RMK A01 T10371068  RH  079%=      5-min Rain = 0
KAOS 200925Z 12003KT M04/M08 A3027 RMK A01 T10421075  RH  078%=      5-min Rain = 0
KAOS 200930Z 13004KT M04/M07 A3027 RMK A01 T10401067  RH  081%=      5-min Rain = 0
KAOS 200935Z 13004KT M04/M07 A3027 RMK A01 T10371067  RH  080%=      5-min Rain = 0
KAOS 200940Z 13004KT M04/M07 A3027 RMK A01 T10391068  RH  080%=      5-min Rain = 0
KAOS 200945Z 15005KT M04/M07 A3027 RMK A01 T10401067  RH  081%=      5-min Rain = 0
KAOS 200950Z 14004KT M04/M07 A3027 RMK A01 T10421072  RH  080%=      5-min Rain = 0
KAOS 200955Z 14004KT M05/M07 A3027 RMK A01 T10461072  RH  082%=      5-min Rain = 0
KAOS 201000Z 15005KT M05/M07 A3026 RMK A01 T10451069  RH  083%=      5-min Rain = 0
KAOS 201005Z 14004KT M05/M07 A3026 RMK A01 T10461074  RH  081%=      5-min Rain = 0
KAOS 201010Z 16006KT M05/M07 A3026 RMK A01 T10481073  RH  082%=      5-min Rain = 0
KAOS 201015Z 16007KT M04/M07 A3026 RMK A01 T10441070  RH  082%=      5-min Rain = 0
KAOS 201020Z 14006KT M05/M08 A3026 RMK A01 T10471075  RH  081%=      5-min Rain = 0
KAOS 201025Z 15005KT M05/M07 A3025 RMK A01 T10481074  RH  082%=      5-min Rain = 0
KAOS 201030Z 14005KT M05/M08 A3025 RMK A01 T10491076  RH  081%=      5-min Rain = 0
KAOS 201035Z 14005KT M05/M08 A3025 RMK A01 T10501075  RH  082%=      5-min Rain = 0
KAOS 201040Z 13005KT M05/M07 A3025 RMK A01 T10491073  RH  083%=      5-min Rain = 0
KAOS 201045Z 15005KT M05/M07 A3025 RMK A01 T10481072  RH  083%=      5-min Rain = 0
KAOS 201050Z 16006KT M04/M07 A3025 RMK A01 T10441067  RH  084%=      5-min Rain = 0
KAOS 201055Z 15005KT M04/M07 A3025 RMK A01 T10441071  RH  082%=      5-min Rain = 0
KAOS 201100Z 12005KT M05/M08 A3025 RMK A01 T10491075  RH  082%=      5-min Rain = 0
KAOS 201105Z 15006KT M05/M07 A3025 RMK A01 T10451068  RH  084%=      5-min Rain = 0
KAOS 201110Z 15005KT M05/M07 A3025 RMK A01 T10451071  RH  082%=      5-min Rain = 0
KAOS 201115Z 15004KT M05/M07 A3025 RMK A01 T10471072  RH  083%=      5-min Rain = 0
KAOS 201120Z 15004KT M05/M08 A3024 RMK A01 T10511076  RH  083%=      5-min Rain = 0
KAOS 201125Z 13005KT M05/M08 A3024 RMK A01 T10521075  RH  084%=      5-min Rain = 0
KAOS 201130Z 14005KT M05/M07 A3024 RMK A01 T10531074  RH  085%=      5-min Rain = 0
KAOS 201135Z 15006KT M05/M07 A3024 RMK A01 T10511071  RH  085%=      5-min Rain = 0
KAOS 201140Z 15005KT M05/M08 A3024 RMK A01 T10521075  RH  084%=      5-min Rain = 0
KAOS 201145Z 14004KT M05/M08 A3023 RMK A01 T10541077  RH  084%=      5-min Rain = 0
KAOS 201150Z 14003KT M05/M07 A3023 RMK A01 T10521071  RH  087%=      5-min Rain = 0
KAOS 201155Z 14003KT M05/M07 A3023 RMK A01 T10481068  RH  086%=      5-min Rain = 0
KAOS 201200Z 15003KT M05/M07 A3023 RMK A01 T10461068  RH  084%=      5-min Rain = 0
KAOS 201205Z 15003KT M05/M07 A3023 RMK A01 T10471069  RH  084%=      5-min Rain = 0
KAOS 201210Z 15003KT M05/M07 A3023 RMK A01 T10471070  RH  084%=      5-min Rain = 0
KAOS 201215Z 14004KT M05/M07 A3023 RMK A01 T10481071  RH  084%=      5-min Rain = 0
KAOS 201220Z 13003KT M05/M08 A3023 RMK A01 T10501075  RH  083%=      5-min Rain = 0
KAOS 201225Z 16004KT M05/M07 A3023 RMK A01 T10511074  RH  084%=      5-min Rain = 0
KAOS 201230Z 17005KT M05/M07 A3023 RMK A01 T10491070  RH  085%=      5-min Rain = 0
KAOS 201235Z 17006KT M05/M07 A3023 RMK A01 T10491072  RH  084%=      5-min Rain = 0
KAOS 201240Z 16005KT M05/M07 A3023 RMK A01 T10481070  RH  084%=      5-min Rain = 0
KAOS 201245Z 15005KT M05/M07 A3023 RMK A01 T10501074  RH  083%=      5-min Rain = 0
KAOS 201250Z 16005KT M05/M07 A3023 RMK A01 T10511073  RH  084%=      5-min Rain = 0
KAOS 201255Z 16005KT M05/M07 A3023 RMK A01 T10491070  RH  085%=      5-min Rain = 0
KAOS 201300Z 16005KT M05/M07 A3023 RMK A01 T10491070  RH  085%=      5-min Rain = 0
KAOS 201305Z 17005KT M05/M07 A3023 RMK A01 T10471069  RH  085%=      5-min Rain = 0
KAOS 201310Z 17005KT M05/M07 A3023 RMK A01 T10471066  RH  086%=      5-min Rain = 0
KAOS 201315Z 17006KT M05/M07 A3023 RMK A01 T10451065  RH  086%=      5-min Rain = 0
KAOS 201320Z 18006KT M05/M07 A3023 RMK A01 T10451065  RH  085%=      5-min Rain = 0
KAOS 201325Z 18006KT M05/M07 A3024 RMK A01 T10451066  RH  085%=      5-min Rain = 0
KAOS 201330Z 18006KT M05/M07 A3024 RMK A01 T10461067  RH  085%=      5-min Rain = 0
KAOS 201335Z 18006KT M05/M07 A3024 RMK A01 T10491070  RH  085%=      5-min Rain = 0
KAOS 201340Z 18006KT M05/M07 A3024 RMK A01 T10521071  RH  086%=      5-min Rain = 0
KAOS 201345Z 18006KT M05/M07 A3024 RMK A01 T10511070  RH  087%=      5-min Rain = 0
KAOS 201350Z 18006KT M05/M07 A3024 RMK A01 T10491069  RH  086%=      5-min Rain = 0
KAOS 201355Z 17005KT M05/M07 A3024 RMK A01 T10491068  RH  087%=      5-min Rain = 0
KAOS 201400Z 18006KT M05/M07 A3024 RMK A01 T10511070  RH  086%=      5-min Rain = 0
KAOS 201405Z 18007KT M05/M07 A3023 RMK A01 T10491068  RH  086%=      5-min Rain = 0
KAOS 201410Z 18007KT M05/M07 A3024 RMK A01 T10461067  RH  085%=      5-min Rain = 0
KAOS 201415Z 18006KT M05/M07 A3024 RMK A01 T10461068  RH  085%=      5-min Rain = 0
KAOS 201420Z 18006KT M05/M07 A3024 RMK A01 T10461066  RH  086%=      5-min Rain = 0
KAOS 201425Z 19007KT M04/M06 A3024 RMK A01 T10431064  RH  086%=      5-min Rain = 0
KAOS 201430Z 19006KT M04/M06 A3024 RMK A01 T10361059  RH  084%=      5-min Rain = 0
KAOS 201435Z 19006KT M03/M06 A3023 RMK A01 T10291055  RH  083%=      5-min Rain = 0
KAOS 201440Z 18008KT M02/M05 A3023 RMK A01 T10221050  RH  081%=      5-min Rain = 0
KAOS 201445Z 19009KT M02/M05 A3023 RMK A01 T10181049  RH  080%=      5-min Rain = 0
KAOS 201450Z 19009KT M02/M05 A3023 RMK A01 T10161048  RH  079%=      5-min Rain = 0
KAOS 201455Z 19010KT M01/M05 A3023 RMK A01 T10141047  RH  079%=      5-min Rain = 0
KAOS 201500Z 19010KT M01/M04 A3023 RMK A01 T10111044  RH  078%=      5-min Rain = 0
KAOS 201505Z 19009KT M01/M04 A3023 RMK A01 T10081042  RH  078%=      5-min Rain = 0
KAOS 201510Z 19009KT M00/M04 A3022 RMK A01 T10041040  RH  077%=      5-min Rain = 0
KAOS 201515Z 19011KT 00/M04 A3023 RMK A01 T00011039  RH  075%=      5-min Rain = 0
KAOS 201520Z 20011KT 00/M04 A3023 RMK A01 T00041037  RH  074%=      5-min Rain = 0
KAOS 201525Z 20011KT 01/M04 A3023 RMK A01 T00071037  RH  073%=      5-min Rain = 0
KAOS 201530Z 19013KT 01/M04 A3023 RMK A01 T00091038  RH  072%=      5-min Rain = 0
KAOS 201535Z 19011KT 01/M04 A3023 RMK A01 T00121036  RH  071%=      5-min Rain = 0
KAOS 201540Z 19014KT 02/M04 A3023 RMK A01 T00151036  RH  069%=      5-min Rain = 0
KAOS 201545Z 19013KT 02/M04 A3023 RMK A01 T00201035  RH  067%=      5-min Rain = 0
KAOS 201550Z 19015KT 02/M04 A3023 RMK A01 T00241035  RH  066%=      5-min Rain = 0
KAOS 201555Z 19013KT 03/M03 A3022 RMK A01 T00271034  RH  065%=      5-min Rain = 0
KAOS 201600Z 19014KT 03/M03 A3022 RMK A01 T00291034  RH  064%=      5-min Rain = 0
KAOS 201605Z 19015KT 03/M03 A3022 RMK A01 T00311033  RH  063%=      5-min Rain = 0
KAOS 201610Z 19015KT 03/M03 A3022 RMK A01 T00341034  RH  062%=      5-min Rain = 0
KAOS 201615Z 19015KT 04/M03 A3022 RMK A01 T00381033  RH  061%=      5-min Rain = 0
KAOS 201620Z 19014G19KT 04/M03 A3022 RMK A01 T00421031  RH  059%=      5-min Rain = 0
KAOS 201625Z 19015KT 05/M03 A3022 RMK A01 T00461032  RH  057%=      5-min Rain = 0
KAOS 201630Z 19014KT 05/M03 A3022 RMK A01 T00501031  RH  056%=      5-min Rain = 0
KAOS 201635Z 19014G19KT 05/M03 A3022 RMK A01 T00531031  RH  055%=      5-min Rain = 0
KAOS 201640Z 20015KT 06/M03 A3022 RMK A01 T00561032  RH  054%=      5-min Rain = 0
KAOS 201645Z 19016KT 06/M03 A3022 RMK A01 T00581032  RH  053%=      5-min Rain = 0
KAOS 201650Z 19015KT 06/M03 A3022 RMK A01 T00621030  RH  052%=      5-min Rain = 0
KAOS 201655Z 19015KT 07/M03 A3022 RMK A01 T00671028  RH  051%=      5-min Rain = 0
KAOS 201700Z 19015KT 07/M03 A3022 RMK A01 T00731029  RH  049%=      5-min Rain = 0
KAOS 201705Z 19015KT 07/M03 A3021 RMK A01 T00711031  RH  048%=      5-min Rain = 0
KAOS 201710Z 19014KT 08/M03 A3021 RMK A01 T00751030  RH  047%=      5-min Rain = 0
KAOS 201715Z 19014KT 08/M03 A3021 RMK A01 T00811030  RH  046%=      5-min Rain = 0
KAOS 201720Z 19014KT 08/M03 A3021 RMK A01 T00821031  RH  045%=      5-min Rain = 0
KAOS 201725Z 19014KT 08/M03 A3021 RMK A01 T00821033  RH  044%=      5-min Rain = 0
KAOS 201730Z 20015KT 09/M03 A3021 RMK A01 T00861033  RH  043%=      5-min Rain = 0
KAOS 201735Z 20015KT 09/M03 A3021 RMK A01 T00871034  RH  043%=      5-min Rain = 0
KAOS 201740Z 20014KT 09/M03 A302 RMK A01 T00911032  RH  042%=      5-min Rain = 0
KAOS 201745Z 20014KT 10/M03 A302 RMK A01 T00951030  RH  042%=      5-min Rain = 0
KAOS 201750Z 20014KT 10/M03 A302 RMK A01 T01001031  RH  040%=      5-min Rain = 0
KAOS 201755Z 20014KT 10/M03 A3019 RMK A01 T01031032  RH  039%=      5-min Rain = 0
KAOS 201800Z 20014KT 10/M03 A3019 RMK A01 T01041034  RH  038%=      5-min Rain = 0
KAOS 201805Z 21013KT 10/M03 A3019 RMK A01 T01041033  RH  038%=      5-min Rain = 0
KAOS 201810Z 20013KT 11/M03 A3018 RMK A01 T01061034  RH  037%=      5-min Rain = 0
KAOS 201815Z 20013KT 11/M03 A3018 RMK A01 T01131034  RH  036%=      5-min Rain = 0
KAOS 201820Z 21013KT 12/M04 A3018 RMK A01 T01171035  RH  035%=      5-min Rain = 0
KAOS 201825Z 21013KT 12/M04 A3018 RMK A01 T01161038  RH  034%=      5-min Rain = 0
KAOS 201830Z 20013KT 12/M04 A3017 RMK A01 T01221036  RH  033%=      5-min Rain = 0
KAOS 201835Z 21012KT 12/M04 A3017 RMK A01 T01191039  RH  033%=      5-min Rain = 0
KAOS 201840Z 20012KT 12/M04 A3016 RMK A01 T01231037  RH  033%=      5-min Rain = 0
KAOS 201845Z 21011KT 13/M04 A3016 RMK A01 T01251037  RH  032%=      5-min Rain = 0
KAOS 201850Z 20012KT 13/M04 A3015 RMK A01 T01261039  RH  032%=      5-min Rain = 0
KAOS 201855Z 21012KT 13/M04 A3015 RMK A01 T01301041  RH  030%=      5-min Rain = 0
KAOS 201900Z 21012KT 13/M04 A3015 RMK A01 T01311044  RH  029%=      5-min Rain = 0
KAOS 201905Z 21012KT 13/M04 A3014 RMK A01 T01331042  RH  030%=      5-min Rain = 0
KAOS 201910Z 20011KT 14/M04 A3014 RMK A01 T01361042  RH  029%=      5-min Rain = 0
KAOS 201915Z 20012KT 14/M04 A3013 RMK A01 T01371042  RH  029%=      5-min Rain = 0
KAOS 201920Z 21012KT 14/M04 A3013 RMK A01 T01431041  RH  028%=      5-min Rain = 0
KAOS 201925Z 21012KT 15/M04 A3013 RMK A01 T01451044  RH  027%=      5-min Rain = 0
KAOS 201930Z 21011G16KT 15/M05 A3012 RMK A01 T01491045  RH  026%=      5-min Rain = 0
KAOS 201935Z 22012G19KT 15/M05 A3012 RMK A01 T01541049  RH  024%=      5-min Rain = 0
KAOS 201940Z 22011KT 15/M05 A3012 RMK A01 T01521051  RH  024%=      5-min Rain = 0
KAOS 201945Z 21012KT 16/M05 A3011 RMK A01 T01551054  RH  023%=      5-min Rain = 0
KAOS 201950Z 22012KT 16/M06 A3011 RMK A01 T01601059  RH  022%=      5-min Rain = 0
KAOS 201955Z 22014KT 17/M06 A301 RMK A01 T01651060  RH  021%=      5-min Rain = 0
KAOS 202000Z 22016KT 17/M06 A3009 RMK A01 T01691062  RH  020%=      5-min Rain = 0
KAOS 202005Z 22014G20KT 17/M06 A3009 RMK A01 T01701062  RH  020%=      5-min Rain = 0
KAOS 202010Z 23015KT 17/M06 A3009 RMK A01 T01741060  RH  020%=      5-min Rain = 0
KAOS 202015Z 23012G18KT 18/M06 A3009 RMK A01 T01761060  RH  019%=      5-min Rain = 0
KAOS 202020Z 23014G19KT 18/M06 A3009 RMK A01 T01771061  RH  019%=      5-min Rain = 0
KAOS 202025Z 22015KT 18/M06 A3008 RMK A01 T01751064  RH  019%=      5-min Rain = 0
KAOS 202030Z 22016G21KT 18/M06 A3008 RMK A01 T01751064  RH  019%=      5-min Rain = 0
KAOS 202035Z 23014G19KT 18/M06 A3008 RMK A01 T01781061  RH  019%=      5-min Rain = 0
KAOS 202040Z 23014G19KT 18/M06 A3008 RMK A01 T01811059  RH  019%=      5-min Rain = 0
KAOS 202045Z 23015G20KT 18/M06 A3007 RMK A01 T01811060  RH  019%=      5-min Rain = 0
KAOS 202050Z 22014KT 18/M06 A3007 RMK A01 T01811062  RH  019%=      5-min Rain = 0
KAOS 202055Z 23014G19KT 18/M06 A3007 RMK A01 T01821060  RH  019%=      5-min Rain = 0
KAOS 202100Z 22015G25KT 18/M06 A3006 RMK A01 T01821064  RH  018%=      5-min Rain = 0
KAOS 202105Z 22016KT 18/M07 A3006 RMK A01 T01811065  RH  018%=      5-min Rain = 0
KAOS 202110Z 22015KT 18/M07 A3006 RMK A01 T01801065  RH  018%=      5-min Rain = 0
KAOS 202115Z 22014KT 18/M07 A3006 RMK A01 T01831067  RH  018%=      5-min Rain = 0
KAOS 202120Z 23013KT 18/M07 A3006 RMK A01 T01831065  RH  018%=      5-min Rain = 0
KAOS 202125Z 21015G20KT 18/M07 A3006 RMK A01 T01821067  RH  018%=      5-min Rain = 0
KAOS 202130Z 22016KT 18/M07 A3006 RMK A01 T01821065  RH  018%=      5-min Rain = 0
KAOS 202135Z 23013G18KT 18/M06 A3006 RMK A01 T01841063  RH  018%=      5-min Rain = 0
KAOS 202140Z 22013KT 18/M06 A3005 RMK A01 T01841063  RH  018%=      5-min Rain = 0
KAOS 202145Z 22013KT 18/M06 A3005 RMK A01 T01841063  RH  018%=      5-min Rain = 0
KAOS 202150Z 21012KT 18/M06 A3005 RMK A01 T01841063  RH  018%=      5-min Rain = 0
KAOS 202155Z 21012KT 18/M07 A3005 RMK A01 T01811065  RH  018%=      5-min Rain = 0
KAOS 202200Z 21012G17KT 19/M06 A3005 RMK A01 T01851063  RH  018%=      5-min Rain = 0
KAOS 202205Z 21012KT 18/M06 A3006 RMK A01 T01831064  RH  018%=      5-min Rain = 0
KAOS 202210Z 21012G17KT 18/M06 A3006 RMK A01 T01841064  RH  018%=      5-min Rain = 0
KAOS 202215Z 22012KT 18/M06 A3005 RMK A01 T01841064  RH  018%=      5-min Rain = 0
KAOS 202220Z 20012G17KT 18/M07 A3005 RMK A01 T01841065  RH  018%=      5-min Rain = 0
KAOS 202225Z 20012KT 18/M07 A3005 RMK A01 T01831065  RH  018%=      5-min Rain = 0
KAOS 202230Z 21011KT 19/M06 A3005 RMK A01 T01851064  RH  018%=      5-min Rain = 0
KAOS 202235Z 21012KT 18/M06 A3005 RMK A01 T01841064  RH  018%=      5-min Rain = 0
KAOS 202240Z 21012KT 18/M06 A3005 RMK A01 T01821064  RH  018%=      5-min Rain = 0
KAOS 202245Z 21012KT 18/M06 A3005 RMK A01 T01791064  RH  019%=      5-min Rain = 0
KAOS 202250Z 20011KT 18/M07 A3005 RMK A01 T01751065  RH  019%=      5-min Rain = 0
KAOS 202255Z 20010KT 17/M07 A3005 RMK A01 T01741065  RH  019%=      5-min Rain = 0
KAOS 202300Z 20009KT 17/M06 A3005 RMK A01 T01731064  RH  019%=      5-min Rain = 0
KAOS 202305Z 19009KT 17/M06 A3005 RMK A01 T01721063  RH  020%=      5-min Rain = 0
KAOS 202310Z 19009KT 17/M06 A3005 RMK A01 T01671064  RH  020%=      5-min Rain = 0
KAOS 202315Z 18009KT 16/M07 A3005 RMK A01 T01621065  RH  021%=      5-min Rain = 0
KAOS 202320Z 18009KT 16/M06 A3004 RMK A01 T01581064  RH  021%=      5-min Rain = 0
KAOS 202325Z 18009KT 16/M06 A3004 RMK A01 T01551063  RH  022%=      5-min Rain = 0
KAOS 202330Z 17009KT 15/M06 A3004 RMK A01 T01501063  RH  022%=      5-min Rain = 0
KAOS 202335Z 17010KT 15/M06 A3003 RMK A01 T01451064  RH  023%=      5-min Rain = 0
KAOS 202340Z 17010KT 14/M06 A3003 RMK A01 T01421064  RH  023%=      5-min Rain = 0
KAOS 202345Z 17010KT 14/M06 A3003 RMK A01 T01381063  RH  024%=      5-min Rain = 0
KAOS 202350Z 17010KT 13/M06 A3003 RMK A01 T01341063  RH  025%=      5-min Rain = 0
KAOS 202355Z 17010KT 13/M06 A3003 RMK A01 T01301064  RH  025%=      5-min Rain = 0
KAOS 210000Z 17010KT 13/M06 A3003 RMK A01 T01261064  RH  026%=      5-min Rain = 0
KAOS 210005Z 18010KT 12/M06 A3003 RMK A01 T01221064  RH  027%=      5-min Rain = 0
KAOS 210010Z 18009KT 12/M07 A3003 RMK A01 T01161065  RH  028%=      5-min Rain = 0
KAOS 210015Z 18010KT 11/M07 A3004 RMK A01 T01121065  RH  028%=      5-min Rain = 0
KAOS 210020Z 18010KT 11/M07 A3004 RMK A01 T01091065  RH  029%=      5-min Rain = 0
KAOS 210025Z 17010KT 11/M07 A3003 RMK A01 T01061065  RH  029%=      5-min Rain = 0
KAOS 210030Z 18010KT 10/M07 A3003 RMK A01 T01021066  RH  030%=      5-min Rain = 0
KAOS 210035Z 18009KT 10/M07 A3003 RMK A01 T00961066  RH  031%=      5-min Rain = 0
KAOS 210040Z 18009KT 09/M07 A3003 RMK A01 T00911066  RH  032%=      5-min Rain = 0
KAOS 210045Z 18009KT 09/M07 A3003 RMK A01 T00871068  RH  033%=      5-min Rain = 0
KAOS 210050Z 18008KT 08/M07 A3003 RMK A01 T00821068  RH  034%=      5-min Rain = 0
KAOS 210055Z 17008KT 08/M07 A3003 RMK A01 T00781069  RH  035%=      5-min Rain = 0
KAOS 210100Z 17008KT 07/M07 A3003 RMK A01 T00731069  RH  036%=      5-min Rain = 0
KAOS 210105Z 17008KT 07/M07 A3003 RMK A01 T00691069  RH  037%=      5-min Rain = 0
KAOS 210110Z 17007KT 07/M07 A3003 RMK A01 T00651069  RH  038%=      5-min Rain = 0
KAOS 210115Z 17008KT 07/M07 A3003 RMK A01 T00651068  RH  038%=      5-min Rain = 0
KAOS 210120Z 17008KT 07/M07 A3003 RMK A01 T00701069  RH  036%=      5-min Rain = 0
KAOS 210125Z 18010KT 08/M07 A3003 RMK A01 T00751069  RH  035%=      5-min Rain = 0
KAOS 210130Z 18010KT 08/M07 A3003 RMK A01 T00791068  RH  034%=      5-min Rain = 0
KAOS 210135Z 18010KT 08/M07 A3003 RMK A01 T00791068  RH  035%=      5-min Rain = 0
KAOS 210140Z 18011KT 08/M07 A3002 RMK A01 T00771067  RH  035%=      5-min Rain = 0
KAOS 210145Z 18011KT 08/M07 A3002 RMK A01 T00751067  RH  036%=      5-min Rain = 0
KAOS 210150Z 18011KT 07/M07 A3002 RMK A01 T00731066  RH  036%=      5-min Rain = 0
KAOS 210155Z 18011KT 07/M07 A3002 RMK A01 T00741066  RH  036%=      5-min Rain = 0
KAOS 210200Z 18010KT 07/M07 A3002 RMK A01 T00711066  RH  037%=      5-min Rain = 0
KAOS 210205Z 18010KT 07/M07 A3002 RMK A01 T00691066  RH  038%=      5-min Rain = 0
KAOS 210210Z 18010KT 07/M07 A3002 RMK A01 T00671065  RH  038%=      5-min Rain = 0
KAOS 210215Z 18009KT 07/M07 A3002 RMK A01 T00671065  RH  039%=      5-min Rain = 0
KAOS 210220Z 18009KT 07/M06 A3002 RMK A01 T00661064  RH  039%=      5-min Rain = 0
KAOS 210225Z 19009KT 07/M06 A3002 RMK A01 T00651064  RH  039%=      5-min Rain = 0
KAOS 210230Z 19010KT 07/M06 A3002 RMK A01 T00681064  RH  039%=      5-min Rain = 0
KAOS 210235Z 19011KT 07/M06 A3002 RMK A01 T00731064  RH  037%=      5-min Rain = 0
KAOS 210240Z 19011KT 07/M07 A3002 RMK A01 T00731065  RH  037%=      5-min Rain = 0
KAOS 210245Z 18011KT 07/M07 A3001 RMK A01 T00731065  RH  037%=      5-min Rain = 0
KAOS 210250Z 19009KT 07/M07 A3001 RMK A01 T00691065  RH  038%=      5-min Rain = 0
KAOS 210255Z 19008KT 06/M07 A3001 RMK A01 T00641065  RH  039%=      5-min Rain = 0
KAOS 210300Z 19008KT 06/M07 A3001 RMK A01 T00591065  RH  040%=      5-min Rain = 0
KAOS 210305Z 19008KT 06/M07 A3001 RMK A01 T00591065  RH  041%=      5-min Rain = 0
KAOS 210310Z 19008KT 06/M07 A30 RMK A01 T00581065  RH  041%=      5-min Rain = 0
KAOS 210315Z 19007KT 05/M07 A30 RMK A01 T00521065  RH  043%=      5-min Rain = 0
KAOS 210320Z 19007KT 05/M07 A30 RMK A01 T00471066  RH  044%=      5-min Rain = 0
KAOS 210325Z 19007KT 05/M07 A30 RMK A01 T00451066  RH  044%=      5-min Rain = 0
KAOS 210330Z 20008KT 04/M07 A2999 RMK A01 T00441066  RH  045%=      5-min Rain = 0
KAOS 210335Z 20008KT 04/M07 A2999 RMK A01 T00421066  RH  045%=      5-min Rain = 0
KAOS 210340Z 20008KT 04/M07 A2999 RMK A01 T00431066  RH  045%=      5-min Rain = 0
KAOS 210345Z 20008KT 05/M07 A2999 RMK A01 T00461065  RH  045%=      5-min Rain = 0
KAOS 210350Z 20008KT 05/M06 A2999 RMK A01 T00481064  RH  044%=      5-min Rain = 0
KAOS 210355Z 20008KT 05/M06 A30 RMK A01 T00491064  RH  044%=      5-min Rain = 0
KAOS 210400Z 20008KT 05/M06 A2999 RMK A01 T00501064  RH  043%=      5-min Rain = 0
KAOS 210405Z 20009KT 05/M06 A2999 RMK A01 T00481064  RH  044%=      5-min Rain = 0
KAOS 210410Z 21009KT 04/M06 A2999 RMK A01 T00441064  RH  045%=      5-min Rain = 0
KAOS 210415Z 20008KT 04/M07 A30 RMK A01 T00421065  RH  046%=      5-min Rain = 0
KAOS 210420Z 19008KT 04/M07 A30 RMK A01 T00411066  RH  046%=      5-min Rain = 0
KAOS 210425Z 19007KT 04/M07 A30 RMK A01 T00411067  RH  046%=      5-min Rain = 0
KAOS 210430Z 20007KT 04/M07 A30 RMK A01 T00411066  RH  046%=      5-min Rain = 0
KAOS 210435Z 20007KT 04/M07 A30 RMK A01 T00381067  RH  046%=      5-min Rain = 0
KAOS 210440Z 21009KT 03/M07 A3001 RMK A01 T00341067  RH  048%=      5-min Rain = 0
KAOS 210445Z 20010KT 03/M07 A3001 RMK A01 T00341065  RH  048%=      5-min Rain = 0
KAOS 210450Z 20010KT 04/M06 A30 RMK A01 T00401063  RH  047%=      5-min Rain = 0
KAOS 210455Z 20011KT 05/M06 A30 RMK A01 T00471062  RH  045%=      5-min Rain = 0
KAOS 210500Z 20012KT 05/M06 A30 RMK A01 T00521060  RH  044%=      5-min Rain = 0
KAOS 210505Z 20011KT 05/M06 A30 RMK A01 T00521060  RH  044%=      5-min Rain = 0
KAOS 210510Z 20011KT 05/M06 A30 RMK A01 T00481060  RH  045%=      5-min Rain = 0
KAOS 210515Z 20011KT 05/M06 A30 RMK A01 T00451061  RH  046%=      5-min Rain = 0
KAOS 210520Z 20011KT 04/M06 A30 RMK A01 T00441060  RH  047%=      5-min Rain = 0
KAOS 210525Z 20012KT 05/M06 A30 RMK A01 T00451058  RH  047%=      5-min Rain = 0
KAOS 210530Z 20012KT 04/M06 A30 RMK A01 T00441056  RH  048%=      5-min Rain = 0
KAOS 210535Z 20011KT 05/M05 A2999 RMK A01 T00451053  RH  049%=      5-min Rain = 0
KAOS 210540Z 20011KT 05/M05 A2999 RMK A01 T00451050  RH  050%=      5-min Rain = 0
KAOS 210545Z 20012KT 05/M05 A2999 RMK A01 T00461047  RH  051%=      5-min Rain = 0
KAOS 210550Z 20011KT 05/M04 A2999 RMK A01 T00481044  RH  051%=      5-min Rain = 0
KAOS 210555Z 20012KT 05/M04 A2999 RMK A01 T00531041  RH  051%=      5-min Rain = 0

Page generated in 0.0094 seconds.